createdAt,value
2023-02-21T00:00:30.701Z,7.80
2023-02-21T00:01:40.532Z,7.77
2023-02-21T00:02:50.811Z,7.76
2023-02-21T00:04:00.544Z,7.75
2023-02-21T00:05:10.890Z,7.70
2023-02-21T00:06:21.186Z,7.68
2023-02-21T00:07:31.459Z,7.72
2023-02-21T00:08:41.709Z,7.70
2023-02-21T00:09:51.864Z,7.70
2023-02-21T00:11:01.697Z,7.70
2023-02-21T00:12:12.064Z,7.71
2023-02-21T00:13:22.800Z,7.78
2023-02-21T00:14:33.330Z,7.79
2023-02-21T00:15:43.411Z,7.77
2023-02-21T00:16:53.332Z,7.74
2023-02-21T00:18:04.057Z,7.68
2023-02-21T00:19:14.112Z,7.66
2023-02-21T00:20:24.461Z,7.66
2023-02-21T00:21:34.964Z,7.67
2023-02-21T00:22:45.182Z,7.69
2023-02-21T00:23:55.846Z,7.70
2023-02-21T00:25:07.501Z,7.76
2023-02-21T00:26:17.892Z,7.80
2023-02-21T00:27:28.297Z,7.79
2023-02-21T00:28:38.452Z,7.76
2023-02-21T00:29:48.993Z,7.73
2023-02-21T00:30:59.356Z,7.71
2023-02-21T00:32:10.033Z,7.72
2023-02-21T00:33:20.230Z,7.70
2023-02-21T00:34:30.393Z,7.70
2023-02-21T00:35:40.696Z,7.70
2023-02-21T00:36:50.779Z,7.71
2023-02-21T00:38:00.944Z,7.70
2023-02-21T00:39:11.012Z,7.70
2023-02-21T00:40:21.556Z,7.71
2023-02-21T00:41:32.973Z,7.71
2023-02-21T00:42:42.991Z,7.70
2023-02-21T00:43:55.132Z,7.71
2023-02-21T00:45:06.046Z,7.72
2023-02-21T00:46:16.412Z,7.74
2023-02-21T00:47:26.557Z,7.74
2023-02-21T00:48:41.115Z,7.69
2023-02-21T00:49:51.245Z,7.67
2023-02-21T00:51:01.649Z,7.68
2023-02-21T00:52:12.020Z,7.70
2023-02-21T00:53:23.007Z,7.71
2023-02-21T00:54:33.281Z,7.73
2023-02-21T00:55:43.194Z,7.76
2023-02-21T00:56:53.652Z,7.75
2023-02-21T00:58:03.793Z,7.75
2023-02-21T00:59:13.833Z,7.79
2023-02-21T01:00:27.715Z,7.76
2023-02-21T01:01:37.812Z,7.76
2023-02-21T01:02:48.039Z,7.73
2023-02-21T01:03:58.097Z,7.70
2023-02-21T01:05:08.272Z,7.68
2023-02-21T01:06:19.105Z,7.67
2023-02-21T01:07:29.925Z,7.66
2023-02-21T01:08:39.901Z,7.66
2023-02-21T01:09:50.247Z,7.65
2023-02-21T01:11:00.598Z,7.65
2023-02-21T01:12:11.213Z,7.62
2023-02-21T01:13:22.438Z,7.64
2023-02-21T01:14:35.406Z,7.64
2023-02-21T01:15:45.762Z,7.63
2023-02-21T01:16:59.414Z,7.62
2023-02-21T01:18:17.832Z,7.63
2023-02-21T01:19:27.958Z,7.65
2023-02-21T01:20:38.448Z,7.62
2023-02-21T01:21:48.368Z,7.62
2023-02-21T01:22:58.848Z,7.62
2023-02-21T01:24:12.375Z,7.59
2023-02-21T01:25:24.000Z,7.61
2023-02-21T01:26:35.395Z,7.62
2023-02-21T01:27:45.588Z,7.64
2023-02-21T01:28:55.648Z,7.66
2023-02-21T01:30:06.553Z,7.66
2023-02-21T01:31:17.306Z,7.69
2023-02-21T01:32:28.319Z,7.69
2023-02-21T01:33:38.471Z,7.65
2023-02-21T01:34:48.962Z,7.63
2023-02-21T01:35:59.205Z,7.61
2023-02-21T01:37:10.282Z,7.61
2023-02-21T01:38:20.322Z,7.59
2023-02-21T01:39:31.725Z,7.57
2023-02-21T01:40:42.532Z,7.57
2023-02-21T01:41:52.859Z,7.55
2023-02-21T01:43:03.066Z,7.54
2023-02-21T01:44:25.813Z,7.57
2023-02-21T01:45:40.016Z,7.60
2023-02-21T01:46:50.379Z,7.61
2023-02-21T01:48:00.521Z,7.63
2023-02-21T01:49:13.171Z,7.63
2023-02-21T01:50:33.631Z,7.63
2023-02-21T01:51:51.055Z,7.64
2023-02-21T01:53:01.725Z,7.63
2023-02-21T01:54:14.026Z,7.65
2023-02-21T01:55:27.061Z,7.64
2023-02-21T01:56:37.033Z,7.71
2023-02-21T01:57:47.240Z,7.73
2023-02-21T01:58:57.227Z,7.71
2023-02-21T02:00:09.869Z,7.72
2023-02-21T02:01:39.791Z,7.70
2023-02-21T02:03:30.066Z,7.69
2023-02-21T02:04:40.177Z,7.65
2023-02-21T02:05:51.405Z,7.63
2023-02-21T02:07:01.960Z,7.59
2023-02-21T02:08:14.912Z,7.57
2023-02-21T02:09:40.123Z,7.53
2023-02-21T02:10:50.421Z,7.49
2023-02-21T02:12:24.000Z,7.50
2023-02-21T02:13:54.105Z,7.52
2023-02-21T02:15:07.230Z,7.52
2023-02-21T02:16:17.459Z,7.50
2023-02-21T02:17:22.890Z,7.51
2023-02-21T02:18:33.009Z,7.52
2023-02-21T02:19:27.442Z,7.53
2023-02-21T02:20:46.220Z,7.53
2023-02-21T02:21:37.661Z,7.53
2023-02-21T02:22:48.148Z,7.53
2023-02-21T02:23:49.712Z,7.54
2023-02-21T02:25:18.231Z,7.51
2023-02-21T02:26:32.092Z,7.52
2023-02-21T02:27:37.606Z,7.49
2023-02-21T02:28:42.386Z,7.47
2023-02-21T02:30:00.040Z,7.45
2023-02-21T02:31:07.864Z,7.45
2023-02-21T02:32:26.047Z,7.48
2023-02-21T02:33:21.467Z,7.48
2023-02-21T02:34:19.557Z,7.51
2023-02-21T02:35:20.404Z,7.52
2023-02-21T02:36:25.879Z,7.54
2023-02-21T02:37:22.926Z,7.52
2023-02-21T02:38:30.720Z,7.52
2023-02-21T02:39:40.169Z,7.49
2023-02-21T02:40:55.768Z,7.50
2023-02-21T02:42:07.124Z,7.50
2023-02-21T02:43:37.036Z,7.48
2023-02-21T02:44:41.033Z,7.45
2023-02-21T02:46:06.270Z,7.47
2023-02-21T02:47:03.668Z,7.45
2023-02-21T02:48:03.299Z,7.44
2023-02-21T02:48:58.342Z,7.43
2023-02-21T02:49:52.110Z,7.39
2023-02-21T02:50:48.239Z,7.38
2023-02-21T02:51:40.116Z,7.39
2023-02-21T02:52:35.432Z,7.41
2023-02-21T02:53:29.824Z,7.43
2023-02-21T02:54:23.269Z,7.44
2023-02-21T02:55:34.087Z,7.45
2023-02-21T02:56:28.928Z,7.46
2023-02-21T02:57:21.751Z,7.48
2023-02-21T02:58:13.865Z,7.50
2023-02-21T02:59:21.658Z,7.51
2023-02-21T03:00:14.177Z,7.50
2023-02-21T03:01:25.217Z,7.51
2023-02-21T03:02:36.428Z,7.51
2023-02-21T03:03:50.929Z,7.53
2023-02-21T03:05:24.194Z,7.55
2023-02-21T03:06:47.811Z,7.57
2023-02-21T03:08:27.996Z,7.57
2023-02-21T03:09:26.831Z,7.58
2023-02-21T03:10:54.202Z,7.58
2023-02-21T03:12:06.359Z,7.59
2023-02-21T03:13:17.460Z,7.59
2023-02-21T03:14:20.124Z,7.60
2023-02-21T03:15:27.306Z,7.62
2023-02-21T03:16:27.641Z,7.62
2023-02-21T03:17:26.397Z,7.61
2023-02-21T03:18:36.115Z,7.61
2023-02-21T03:19:43.799Z,7.61
2023-02-21T03:20:38.574Z,7.62
2023-02-21T03:21:41.828Z,7.63
2023-02-21T03:22:35.179Z,7.62
2023-02-21T03:23:31.355Z,7.63
2023-02-21T03:24:26.424Z,7.63
2023-02-21T03:25:21.681Z,7.63
2023-02-21T03:26:16.965Z,7.63
2023-02-21T03:27:13.112Z,7.62
2023-02-21T03:28:25.422Z,7.64
2023-02-21T03:29:21.310Z,7.64
2023-02-21T03:30:14.901Z,7.63
2023-02-21T03:31:11.911Z,7.63
2023-02-21T03:32:11.522Z,7.63
2023-02-21T03:33:03.423Z,7.64
2023-02-21T03:33:54.977Z,7.63
2023-02-21T03:34:47.191Z,7.62
2023-02-21T03:35:41.728Z,7.61
2023-02-21T03:36:37.694Z,7.61
2023-02-21T03:37:31.987Z,7.61
2023-02-21T03:38:23.690Z,7.60
2023-02-21T03:39:15.279Z,7.61
2023-02-21T03:40:10.774Z,7.60
2023-02-21T03:41:02.491Z,7.60
2023-02-21T03:41:55.240Z,7.58
2023-02-21T03:42:46.737Z,7.56
2023-02-21T03:43:41.024Z,7.58
2023-02-21T03:44:32.436Z,7.58
2023-02-21T03:45:24.876Z,7.58
2023-02-21T03:46:29.585Z,7.58
2023-02-21T03:47:21.874Z,7.59
2023-02-21T03:48:17.673Z,7.59
2023-02-21T03:49:15.467Z,7.61
2023-02-21T03:50:07.779Z,7.60
2023-02-21T03:51:02.764Z,7.60
2023-02-21T03:51:59.989Z,7.61
2023-02-21T03:52:51.865Z,7.58
2023-02-21T03:53:44.567Z,7.59
2023-02-21T03:54:38.441Z,7.61
2023-02-21T03:55:30.274Z,7.61
2023-02-21T03:56:24.438Z,7.60
2023-02-21T03:57:42.705Z,7.60
2023-02-21T03:58:35.621Z,7.60
2023-02-21T03:59:28.460Z,7.63
2023-02-21T04:00:20.314Z,7.62
2023-02-21T04:01:16.954Z,7.62
2023-02-21T04:02:08.822Z,7.60
2023-02-21T04:03:00.464Z,7.61
2023-02-21T04:04:01.864Z,7.62
2023-02-21T04:04:53.598Z,7.61
2023-02-21T04:05:47.461Z,7.63
2023-02-21T04:06:39.570Z,7.61
2023-02-21T04:07:31.144Z,7.61
2023-02-21T04:08:22.685Z,7.60
2023-02-21T04:09:14.634Z,7.59
2023-02-21T04:10:07.186Z,7.58
2023-02-21T04:11:06.793Z,7.58
2023-02-21T04:12:00.165Z,7.55
2023-02-21T04:12:52.176Z,7.55
2023-02-21T04:13:43.580Z,7.55
2023-02-21T04:14:35.142Z,7.55
2023-02-21T04:15:26.605Z,7.57
2023-02-21T04:16:19.480Z,7.54
2023-02-21T04:17:12.657Z,7.58
2023-02-21T04:18:05.061Z,7.57
2023-02-21T04:18:57.550Z,7.58
2023-02-21T04:19:50.114Z,7.58
2023-02-21T04:20:42.427Z,7.60
2023-02-21T04:21:38.456Z,7.61
2023-02-21T04:22:30.325Z,7.64
2023-02-21T04:23:22.976Z,7.64
2023-02-21T04:24:14.898Z,7.65
2023-02-21T04:25:06.857Z,7.65
2023-02-21T04:26:05.335Z,7.65
2023-02-21T04:27:05.589Z,7.67
2023-02-21T04:28:00.656Z,7.65
2023-02-21T04:28:53.008Z,7.64
2023-02-21T04:29:44.509Z,7.62
2023-02-21T04:30:36.226Z,7.63
2023-02-21T04:31:28.110Z,7.66
2023-02-21T04:32:19.722Z,7.67
2023-02-21T04:33:11.528Z,7.66
2023-02-21T04:34:11.797Z,7.67
2023-02-21T04:35:06.090Z,7.65
2023-02-21T04:35:58.320Z,7.66
2023-02-21T04:36:58.615Z,7.66
2023-02-21T04:37:50.600Z,7.66
2023-02-21T04:38:43.210Z,7.67
2023-02-21T04:39:34.729Z,7.68
2023-02-21T04:40:26.489Z,7.72
2023-02-21T04:41:19.032Z,7.70
2023-02-21T04:42:10.667Z,7.69
2023-02-21T04:43:02.178Z,7.67
2023-02-21T04:43:53.872Z,7.66
2023-02-21T04:44:55.046Z,7.66
2023-02-21T04:45:51.126Z,7.64
2023-02-21T04:46:42.830Z,7.64
2023-02-21T04:47:34.509Z,7.64
2023-02-21T04:48:26.394Z,7.65
2023-02-21T04:49:18.758Z,7.66
2023-02-21T04:50:10.438Z,7.65
2023-02-21T04:51:14.741Z,7.65
2023-02-21T04:52:07.246Z,7.65
2023-02-21T04:52:58.994Z,7.62
2023-02-21T04:53:52.442Z,7.66
2023-02-21T04:54:44.113Z,7.65
2023-02-21T04:55:35.633Z,7.64
2023-02-21T04:56:30.347Z,7.64
2023-02-21T04:57:22.017Z,7.66
2023-02-21T04:58:13.814Z,7.67
2023-02-21T04:59:05.363Z,7.68
2023-02-21T04:59:59.518Z,7.66
2023-02-21T05:00:51.235Z,7.65
2023-02-21T05:01:42.697Z,7.66
2023-02-21T05:02:34.610Z,7.65
2023-02-21T05:03:26.295Z,7.62
2023-02-21T05:04:17.832Z,7.59
2023-02-21T05:05:10.095Z,7.59
2023-02-21T05:06:01.650Z,7.63
2023-02-21T05:06:53.403Z,7.61
2023-02-21T05:07:45.128Z,7.62
2023-02-21T05:08:36.843Z,7.67
2023-02-21T05:09:28.343Z,7.63
2023-02-21T05:10:20.143Z,7.63
2023-02-21T05:11:11.940Z,7.55
2023-02-21T05:12:03.585Z,7.50
2023-02-21T05:12:55.181Z,7.47
2023-02-21T05:13:47.131Z,7.40
2023-02-21T05:14:39.375Z,7.38
2023-02-21T05:15:30.922Z,7.35
2023-02-21T05:16:22.727Z,7.36
2023-02-21T05:17:14.461Z,7.37
2023-02-21T05:18:06.068Z,7.37
2023-02-21T05:18:57.881Z,7.34
2023-02-21T05:19:49.308Z,7.36
2023-02-21T05:20:42.312Z,7.35
2023-02-21T05:21:38.245Z,7.36
2023-02-21T05:22:29.898Z,7.36
2023-02-21T05:23:33.669Z,7.34
2023-02-21T05:24:27.160Z,7.35
2023-02-21T05:25:22.192Z,7.34
2023-02-21T05:26:13.718Z,7.39
2023-02-21T05:27:05.303Z,7.40
2023-02-21T05:27:56.778Z,7.43
2023-02-21T05:28:48.302Z,7.45
2023-02-21T05:29:39.942Z,7.44
2023-02-21T05:30:31.509Z,7.46
2023-02-21T05:31:23.500Z,7.45
2023-02-21T05:32:15.935Z,7.47
2023-02-21T05:33:07.550Z,7.49
2023-02-21T05:33:58.991Z,7.49
2023-02-21T05:34:50.521Z,7.50
2023-02-21T05:35:42.072Z,7.50
2023-02-21T05:36:33.687Z,7.49
2023-02-21T05:37:25.322Z,7.47
2023-02-21T05:38:19.881Z,7.46
2023-02-21T05:39:12.416Z,7.45
2023-02-21T05:40:05.501Z,7.46
2023-02-21T05:40:57.387Z,7.44
2023-02-21T05:41:50.555Z,7.46
2023-02-21T05:42:43.467Z,7.49
2023-02-21T05:43:34.966Z,7.51
2023-02-21T05:44:26.437Z,7.50
2023-02-21T05:45:18.707Z,7.50
2023-02-21T05:46:19.785Z,7.48
2023-02-21T05:47:12.119Z,7.48
2023-02-21T05:48:04.017Z,7.48
2023-02-21T05:48:57.573Z,7.47
2023-02-21T05:49:49.363Z,7.47
2023-02-21T05:50:41.031Z,7.48
2023-02-21T05:51:42.242Z,7.51
2023-02-21T05:52:33.658Z,7.53
2023-02-21T05:53:25.098Z,7.53
2023-02-21T05:54:19.636Z,7.52
2023-02-21T05:55:11.626Z,7.52
2023-02-21T05:56:03.617Z,7.53
2023-02-21T05:56:55.300Z,7.51
2023-02-21T05:57:46.925Z,7.52
2023-02-21T05:58:39.106Z,7.51
2023-02-21T05:59:30.987Z,7.52
2023-02-21T06:00:27.946Z,7.54
2023-02-21T06:01:19.823Z,7.58
2023-02-21T06:02:11.324Z,7.55
2023-02-21T06:03:04.911Z,7.56
2023-02-21T06:03:56.858Z,7.54
2023-02-21T06:04:49.033Z,7.54
2023-02-21T06:05:43.377Z,7.51
2023-02-21T06:06:35.855Z,7.49
2023-02-21T06:07:27.544Z,7.50
2023-02-21T06:08:19.106Z,7.47
2023-02-21T06:09:11.173Z,7.45
2023-02-21T06:10:03.674Z,7.44
2023-02-21T06:10:55.256Z,7.44
2023-02-21T06:11:47.174Z,7.47
2023-02-21T06:12:38.999Z,7.45
2023-02-21T06:13:32.905Z,7.44
2023-02-21T06:14:25.745Z,7.40
2023-02-21T06:15:17.578Z,7.41
2023-02-21T06:16:10.172Z,7.40
2023-02-21T06:17:02.655Z,7.40
2023-02-21T06:17:54.197Z,7.38
2023-02-21T06:18:45.948Z,7.34
2023-02-21T06:19:37.446Z,7.34
2023-02-21T06:20:28.849Z,7.35
2023-02-21T06:21:20.404Z,7.34
2023-02-21T06:22:12.162Z,7.37
2023-02-21T06:23:05.600Z,7.38
2023-02-21T06:23:57.524Z,7.37
2023-02-21T06:24:51.776Z,7.37
2023-02-21T06:25:43.880Z,7.37
2023-02-21T06:26:35.578Z,7.36
2023-02-21T06:27:27.037Z,7.39
2023-02-21T06:28:18.937Z,7.36
2023-02-21T06:29:11.694Z,7.33
2023-02-21T06:30:04.555Z,7.35
2023-02-21T06:30:58.124Z,7.39
2023-02-21T06:31:49.910Z,7.35
2023-02-21T06:32:44.962Z,7.36
2023-02-21T06:33:36.573Z,7.32
2023-02-21T06:34:28.875Z,7.31
2023-02-21T06:35:20.334Z,7.29
2023-02-21T06:36:17.222Z,7.29
2023-02-21T06:37:08.644Z,7.28
2023-02-21T06:38:00.050Z,7.28
2023-02-21T06:38:53.496Z,7.26
2023-02-21T06:39:45.377Z,7.24
2023-02-21T06:40:37.140Z,7.26
2023-02-21T06:41:30.828Z,7.25
2023-02-21T06:42:23.174Z,7.26
2023-02-21T06:43:15.646Z,7.26
2023-02-21T06:44:07.394Z,7.25
2023-02-21T06:45:00.502Z,7.28
2023-02-21T06:45:52.247Z,7.26
2023-02-21T06:46:44.342Z,7.26
2023-02-21T06:47:36.514Z,7.26
2023-02-21T06:48:28.698Z,7.26
2023-02-21T06:49:21.185Z,7.25
2023-02-21T06:50:12.718Z,7.24
2023-02-21T06:51:10.211Z,7.23
2023-02-21T06:52:01.732Z,7.23
2023-02-21T06:52:53.351Z,7.28
2023-02-21T06:53:49.493Z,7.29
2023-02-21T06:54:41.249Z,7.30
2023-02-21T06:55:32.997Z,7.34
2023-02-21T06:56:24.563Z,7.34
2023-02-21T06:57:16.163Z,7.37
2023-02-21T06:58:07.848Z,7.34
2023-02-21T06:58:59.529Z,7.31
2023-02-21T06:59:51.104Z,7.30
2023-02-21T07:00:42.564Z,7.32
2023-02-21T07:01:34.485Z,7.31
2023-02-21T07:02:25.982Z,7.30
2023-02-21T07:03:17.737Z,7.31
2023-02-21T07:04:09.155Z,7.33
2023-02-21T07:05:00.824Z,7.35
2023-02-21T07:05:52.436Z,7.34
2023-02-21T07:06:44.180Z,7.35
2023-02-21T07:07:35.673Z,7.36
2023-02-21T07:08:27.262Z,7.39
2023-02-21T07:09:18.910Z,7.37
2023-02-21T07:10:10.660Z,7.39
2023-02-21T07:11:02.498Z,7.39
2023-02-21T07:11:54.070Z,7.39
2023-02-21T07:12:45.642Z,7.39
2023-02-21T07:13:37.198Z,7.41
2023-02-21T07:14:29.476Z,7.43
2023-02-21T07:15:21.411Z,7.40
2023-02-21T07:16:14.378Z,7.38
2023-02-21T07:17:06.066Z,7.32
2023-02-21T07:17:57.664Z,7.30
2023-02-21T07:18:49.200Z,7.28
2023-02-21T07:19:42.180Z,7.23
2023-02-21T07:20:35.238Z,7.21
2023-02-21T07:21:28.011Z,7.25
2023-02-21T07:22:25.845Z,7.28
2023-02-21T07:23:17.530Z,7.28
2023-02-21T07:24:10.387Z,7.25
2023-02-21T07:25:02.243Z,7.25
2023-02-21T07:25:53.732Z,7.24
2023-02-21T07:26:45.528Z,7.21
2023-02-21T07:27:36.957Z,7.19
2023-02-21T07:28:28.564Z,7.21
2023-02-21T07:29:20.375Z,7.21
2023-02-21T07:30:12.393Z,7.17
2023-02-21T07:31:04.461Z,7.20
2023-02-21T07:31:56.590Z,7.18
2023-02-21T07:32:48.265Z,7.21
2023-02-21T07:33:39.978Z,7.23
2023-02-21T07:34:31.739Z,7.24
2023-02-21T07:35:23.548Z,7.28
2023-02-21T07:36:15.372Z,7.31
2023-02-21T07:37:06.897Z,7.31
2023-02-21T07:37:58.651Z,7.31
2023-02-21T07:38:50.223Z,7.30
2023-02-21T07:39:41.692Z,7.33
2023-02-21T07:40:33.157Z,7.32
2023-02-21T07:41:24.919Z,7.31
2023-02-21T07:42:16.453Z,7.27
2023-02-21T07:43:10.594Z,7.30
2023-02-21T07:44:02.376Z,7.33
2023-02-21T07:44:57.296Z,7.34
2023-02-21T07:45:49.015Z,7.37
2023-02-21T07:46:42.899Z,7.34
2023-02-21T07:47:34.714Z,7.36
2023-02-21T07:48:26.668Z,7.36
2023-02-21T07:49:18.255Z,7.34
2023-02-21T07:50:10.120Z,7.43
2023-02-21T07:51:01.592Z,7.45
2023-02-21T07:51:53.099Z,7.49
2023-02-21T07:52:46.264Z,7.48
2023-02-21T07:53:37.908Z,7.47
2023-02-21T07:54:29.417Z,7.44
2023-02-21T07:55:21.686Z,7.46
2023-02-21T07:56:13.394Z,7.46
2023-02-21T07:57:04.979Z,7.45
2023-02-21T07:57:56.757Z,7.45
2023-02-21T07:58:48.665Z,7.45
2023-02-21T07:59:40.136Z,7.47
2023-02-21T08:00:31.935Z,7.46
2023-02-21T08:01:25.793Z,7.54
2023-02-21T08:02:17.288Z,7.55
2023-02-21T08:03:12.756Z,7.52
2023-02-21T08:04:04.730Z,7.54
2023-02-21T08:04:56.344Z,7.49
2023-02-21T08:05:47.841Z,7.48
2023-02-21T08:06:39.724Z,7.49
2023-02-21T08:07:31.476Z,7.46
2023-02-21T08:08:23.325Z,7.52
2023-02-21T08:09:15.587Z,7.53
2023-02-21T08:10:07.860Z,7.53
2023-02-21T08:10:59.664Z,7.58
2023-02-21T08:11:51.361Z,7.61
2023-02-21T08:12:42.816Z,7.61
2023-02-21T08:13:34.393Z,7.65
2023-02-21T08:14:25.906Z,7.66
2023-02-21T08:15:18.446Z,7.64
2023-02-21T08:16:10.063Z,7.68
2023-02-21T08:17:01.730Z,7.67
2023-02-21T08:17:53.247Z,7.65
2023-02-21T08:18:47.985Z,7.64
2023-02-21T08:19:40.063Z,7.67
2023-02-21T08:20:31.728Z,7.69
2023-02-21T08:21:23.451Z,7.68
2023-02-21T08:22:15.288Z,7.67
2023-02-21T08:23:06.931Z,7.65
2023-02-21T08:23:58.410Z,7.65
2023-02-21T08:24:50.761Z,7.64
2023-02-21T08:25:42.216Z,7.61
2023-02-21T08:26:33.692Z,7.55
2023-02-21T08:27:25.336Z,7.51
2023-02-21T08:28:18.140Z,7.47
2023-02-21T08:29:09.864Z,7.46
2023-02-21T08:30:01.600Z,7.48
2023-02-21T08:30:53.832Z,7.50
2023-02-21T08:31:45.728Z,7.52
2023-02-21T08:32:37.269Z,7.52
2023-02-21T08:33:31.430Z,7.49
2023-02-21T08:34:24.771Z,7.48
2023-02-21T08:35:18.850Z,7.49
2023-02-21T08:36:10.647Z,7.43
2023-02-21T08:37:06.637Z,7.47
2023-02-21T08:38:03.128Z,7.49
2023-02-21T08:38:54.795Z,7.53
2023-02-21T08:39:52.697Z,7.55
2023-02-21T08:40:45.415Z,7.59
2023-02-21T08:41:43.088Z,7.58
2023-02-21T08:42:34.536Z,7.58
2023-02-21T08:43:26.260Z,7.57
2023-02-21T08:44:18.469Z,7.55
2023-02-21T08:45:17.140Z,7.51
2023-02-21T08:46:09.125Z,7.53
2023-02-21T08:47:00.666Z,7.53
2023-02-21T08:47:52.723Z,7.55
2023-02-21T08:48:44.671Z,7.53
2023-02-21T08:49:39.892Z,7.53
2023-02-21T08:50:32.333Z,7.54
2023-02-21T08:51:28.663Z,7.54
2023-02-21T08:52:21.720Z,7.52
2023-02-21T08:53:15.370Z,7.50
2023-02-21T08:54:07.704Z,7.51
2023-02-21T08:54:59.164Z,7.54
2023-02-21T08:55:50.901Z,7.55
2023-02-21T08:56:42.376Z,7.54
2023-02-21T08:57:34.700Z,7.54
2023-02-21T08:58:26.362Z,7.60
2023-02-21T08:59:18.116Z,7.59
2023-02-21T09:00:13.562Z,7.66
2023-02-21T09:01:05.231Z,7.75
2023-02-21T09:01:56.754Z,7.77
2023-02-21T09:02:49.669Z,7.67
2023-02-21T09:03:41.510Z,7.62
2023-02-21T09:04:35.976Z,7.59
2023-02-21T09:05:30.176Z,7.58
2023-02-21T09:06:21.710Z,7.62
2023-02-21T09:07:15.711Z,7.61
2023-02-21T09:08:10.332Z,7.66
2023-02-21T09:09:01.897Z,7.77
2023-02-21T09:09:53.525Z,7.76
2023-02-21T09:10:47.367Z,7.76
2023-02-21T09:11:39.497Z,7.72
2023-02-21T09:12:31.045Z,7.74
2023-02-21T09:13:22.549Z,7.73
2023-02-21T09:14:15.149Z,7.77
2023-02-21T09:15:08.218Z,7.81
2023-02-21T09:16:01.742Z,7.77
2023-02-21T09:17:44.914Z,7.76
2023-02-21T09:19:00.747Z,7.78
2023-02-21T09:19:53.697Z,7.77
2023-02-21T09:21:17.687Z,7.78
2023-02-21T09:24:48.774Z,7.66
2023-02-21T09:25:42.807Z,7.71
2023-02-21T09:26:35.707Z,7.74
2023-02-21T09:27:39.112Z,7.79
2023-02-21T09:28:33.483Z,7.77
2023-02-21T09:29:31.530Z,7.72
2023-02-21T09:30:53.182Z,7.76
2023-02-21T09:31:46.281Z,7.76
2023-02-21T09:32:40.131Z,7.75
2023-02-21T09:33:34.751Z,7.79
2023-02-21T09:34:27.312Z,7.77
2023-02-21T09:35:21.644Z,7.75
2023-02-21T09:36:14.324Z,7.73
2023-02-21T09:38:14.828Z,7.72
2023-02-21T09:39:22.968Z,7.73
2023-02-21T09:40:36.584Z,7.74
2023-02-21T09:42:11.037Z,7.73
2023-02-21T09:43:16.081Z,7.76
2023-02-21T09:44:43.553Z,7.77
2023-02-21T09:45:38.773Z,7.74
2023-02-21T09:49:49.281Z,7.62
2023-02-21T09:53:39.137Z,7.53
2023-02-21T09:53:58.855Z,7.70
2023-02-21T09:55:24.518Z,7.81
2023-02-21T09:56:34.233Z,7.96
2023-02-21T09:57:26.059Z,8.06
2023-02-21T09:58:20.367Z,8.02
2023-02-21T09:59:15.861Z,7.95
2023-02-21T10:00:35.947Z,7.99
2023-02-21T10:01:44.703Z,7.97
2023-02-21T10:02:51.996Z,7.93
2023-02-21T10:04:15.509Z,7.90
2023-02-21T10:05:19.314Z,7.94
2023-02-21T10:06:25.924Z,7.97
2023-02-21T10:07:28.541Z,7.93
2023-02-21T10:08:43.173Z,7.90
2023-02-21T10:10:03.058Z,7.90
2023-02-21T10:11:03.166Z,7.88
2023-02-21T10:12:16.233Z,7.91
2023-02-21T10:13:34.696Z,7.91
2023-02-21T10:14:41.198Z,7.89
2023-02-21T10:15:58.846Z,7.91
2023-02-21T10:16:56.970Z,7.99
2023-02-21T10:18:08.633Z,8.02
2023-02-21T10:19:21.010Z,8.09
2023-02-21T10:20:29.287Z,8.07
2023-02-21T10:21:30.811Z,8.05
2023-02-21T10:22:28.584Z,8.04
2023-02-21T10:23:35.149Z,8.03
2023-02-21T10:24:28.771Z,8.03
2023-02-21T10:25:25.118Z,8.01
2023-02-21T10:26:25.032Z,8.08
2023-02-21T10:27:26.274Z,8.06
2023-02-21T10:28:21.877Z,8.07
2023-02-21T10:29:45.802Z,8.12
2023-02-21T10:30:40.843Z,8.16
2023-02-21T10:31:39.924Z,8.24
2023-02-21T10:32:35.935Z,8.25
2023-02-21T10:33:28.076Z,8.27
2023-02-21T10:34:35.160Z,8.36
2023-02-21T10:35:26.884Z,8.39
2023-02-21T10:36:23.607Z,8.47
2023-02-21T10:37:26.591Z,8.50
2023-02-21T10:38:25.879Z,8.53
2023-02-21T10:39:27.127Z,8.50
2023-02-21T10:40:29.509Z,8.52
2023-02-21T10:41:22.211Z,8.51
2023-02-21T10:42:24.848Z,8.48
2023-02-21T10:43:38.188Z,8.50
2023-02-21T10:44:35.871Z,8.50
2023-02-21T10:45:42.981Z,8.62
2023-02-21T10:47:22.894Z,8.69
2023-02-21T10:48:22.495Z,8.76
2023-02-21T10:50:05.186Z,8.82
2023-02-21T10:51:33.641Z,8.79
2023-02-21T10:52:25.100Z,8.87
2023-02-21T10:53:34.205Z,8.85
2023-02-21T10:54:35.244Z,8.90
2023-02-21T10:55:33.132Z,8.95
2023-02-21T10:56:27.965Z,8.95
2023-02-21T10:57:19.585Z,8.95
2023-02-21T10:58:21.977Z,8.90
2023-02-21T10:59:24.828Z,8.97
2023-02-21T11:00:36.307Z,9.03
2023-02-21T11:01:30.275Z,8.97
2023-02-21T11:02:31.979Z,8.93
2023-02-21T11:03:28.149Z,8.91
2023-02-21T11:04:19.518Z,8.90
2023-02-21T11:05:18.038Z,8.93
2023-02-21T11:06:23.784Z,8.95
2023-02-21T11:07:15.987Z,8.96
2023-02-21T11:08:09.579Z,8.94
2023-02-21T11:09:03.198Z,8.91
2023-02-21T11:09:57.155Z,8.85
2023-02-21T11:11:03.458Z,8.81
2023-02-21T11:12:23.373Z,8.85
2023-02-21T11:13:24.048Z,8.82
2023-02-21T11:14:19.760Z,8.84
2023-02-21T11:15:21.934Z,8.89
2023-02-21T11:16:22.273Z,8.95
2023-02-21T11:17:16.955Z,9.08
2023-02-21T11:18:25.030Z,9.21
2023-02-21T11:19:19.351Z,9.28
2023-02-21T11:20:14.889Z,9.30
2023-02-21T11:21:22.614Z,9.36
2023-02-21T11:22:37.202Z,9.32
2023-02-21T11:23:38.218Z,9.40
2023-02-21T11:25:00.971Z,9.38
2023-02-21T11:26:16.694Z,9.35
2023-02-21T11:27:46.126Z,9.38
2023-02-21T11:28:47.878Z,9.38
2023-02-21T11:29:51.881Z,9.33
2023-02-21T11:31:01.492Z,9.18
2023-02-21T11:31:54.399Z,9.32
2023-02-21T11:32:57.231Z,9.31
2023-02-21T11:34:04.025Z,9.29
2023-02-21T11:35:24.043Z,9.37
2023-02-21T11:36:19.365Z,9.42
2023-02-21T11:37:10.901Z,9.37
2023-02-21T11:38:06.652Z,9.39
2023-02-21T11:39:27.650Z,9.52
2023-02-21T11:40:35.870Z,9.58
2023-02-21T11:41:59.428Z,9.47
2023-02-21T11:42:50.956Z,9.38
2023-02-21T11:43:48.266Z,9.28
2023-02-21T11:44:41.381Z,9.24
2023-02-21T11:45:38.434Z,9.22
2023-02-21T11:47:17.885Z,9.19
2023-02-21T11:48:18.074Z,9.25
2023-02-21T11:49:33.416Z,9.20
2023-02-21T11:50:26.222Z,9.19
2023-02-21T11:51:25.222Z,9.35
2023-02-21T11:52:25.643Z,9.30
2023-02-21T11:53:26.084Z,9.35
2023-02-21T11:54:27.546Z,9.38
2023-02-21T11:55:22.004Z,9.29
2023-02-21T11:56:19.813Z,9.37
2023-02-21T11:57:27.056Z,9.46
2023-02-21T11:58:27.629Z,9.60
2023-02-21T11:59:47.860Z,9.73
2023-02-21T12:01:08.328Z,9.87
2023-02-21T12:02:19.275Z,9.95
2023-02-21T12:03:55.949Z,10.08
2023-02-21T12:05:38.697Z,10.22
2023-02-21T12:06:45.685Z,10.38
2023-02-21T12:07:46.020Z,10.50
2023-02-21T12:08:51.510Z,10.46
2023-02-21T12:10:03.503Z,10.36
2023-02-21T12:11:03.341Z,10.37
2023-02-21T12:12:09.316Z,10.51
2023-02-21T12:13:24.212Z,10.28
2023-02-21T12:14:54.669Z,10.41
2023-02-21T12:16:23.812Z,10.29
2023-02-21T12:17:41.101Z,10.29
2023-02-21T12:18:41.013Z,10.27
2023-02-21T12:19:47.010Z,10.22
2023-02-21T12:20:51.381Z,10.27
2023-02-21T12:22:13.053Z,10.26
2023-02-21T12:23:36.868Z,10.38
2023-02-21T12:24:32.030Z,10.46
2023-02-21T12:26:11.506Z,10.48
2023-02-21T12:27:15.389Z,10.60
2023-02-21T12:28:34.247Z,10.49
2023-02-21T12:29:40.835Z,10.42
2023-02-21T12:30:59.070Z,10.40
2023-02-21T12:32:04.753Z,10.34
2023-02-21T12:33:11.876Z,10.53
2023-02-21T12:34:15.362Z,10.65
2023-02-21T12:35:44.263Z,10.54
2023-02-21T12:36:49.846Z,10.40
2023-02-21T12:38:09.658Z,10.41
2023-02-21T12:39:16.568Z,10.46
2023-02-21T12:40:20.061Z,10.47
2023-02-21T12:41:33.485Z,10.48
2023-02-21T12:42:45.498Z,10.50
2023-02-21T12:43:58.581Z,10.67
2023-02-21T12:45:27.150Z,10.60
2023-02-21T12:46:36.645Z,10.63
2023-02-21T12:47:56.873Z,10.40
2023-02-21T12:48:58.632Z,10.37
2023-02-21T12:50:02.246Z,10.40
2023-02-21T12:51:04.889Z,10.39
2023-02-21T12:52:15.195Z,10.53
2023-02-21T12:53:20.517Z,10.50
2023-02-21T12:54:21.378Z,10.65
2023-02-21T12:55:24.505Z,10.78
2023-02-21T12:56:26.514Z,10.82
2023-02-21T12:57:31.101Z,10.73
2023-02-21T12:58:30.672Z,10.70
2023-02-21T12:59:37.086Z,10.75
2023-02-21T13:00:30.085Z,10.69
2023-02-21T13:01:43.928Z,10.59
2023-02-21T13:02:52.238Z,10.53
2023-02-21T13:04:03.278Z,10.49
2023-02-21T13:05:13.648Z,10.41
2023-02-21T13:06:31.365Z,10.46
2023-02-21T13:07:32.656Z,10.57
2023-02-21T13:08:45.755Z,10.77
2023-02-21T13:09:45.920Z,10.81
2023-02-21T13:11:07.349Z,10.80
2023-02-21T13:12:21.051Z,10.58
2023-02-21T13:13:19.081Z,10.53
2023-02-21T13:14:17.922Z,10.53
2023-02-21T13:15:16.207Z,10.52
2023-02-21T13:16:12.717Z,10.52
2023-02-21T13:17:04.547Z,10.57
2023-02-21T13:18:05.783Z,10.59
2023-02-21T13:19:04.676Z,10.59
2023-02-21T13:19:56.520Z,10.67
2023-02-21T13:20:58.876Z,10.73
2023-02-21T13:21:53.350Z,10.89
2023-02-21T13:22:56.889Z,10.91
2023-02-21T13:23:59.429Z,10.89
2023-02-21T13:25:06.228Z,11.00
2023-02-21T13:26:04.756Z,11.01
2023-02-21T13:27:30.934Z,11.08
2023-02-21T13:28:25.778Z,11.09